Time;durP1;ratioP1;P1;durP2;ratioP2;P2;SDS_P1;SDS_P2;PMS_P1;PMS_P2;Temp;Humidity;BMP_temperature;BMP_pressure;BME280_temperature;BME280_humidity;BME280_pressure;Samples;Min_cycle;Max_cycle;Signal;HPM_P1;HPM_P2
2023/04/28 00:01:18;;;;;;;;;;;8.90;72.80;;;;;;4926826;29;19918;-70
2023/04/28 00:03:44;;;;;;;;;;;8.90;72.90;;;;;;4897320;29;20010;-70
2023/04/28 00:06:10;;;;;;;;;;;8.80;72.60;;;;;;4913292;29;19927;-70
2023/04/28 00:08:36;;;;;;;;;;;8.80;72.50;;;;;;4920590;29;19970;-70
2023/04/28 00:11:01;;;;;;;;;;;8.90;72.90;;;;;;4912160;29;19919;-73
2023/04/28 00:13:27;;;;;;;;;;;8.80;72.70;;;;;;4895469;29;20699;-70
2023/04/28 00:15:53;;;;;;;;;;;8.80;73.10;;;;;;4908596;29;20325;-70
2023/04/28 00:18:20;;;;;;;;;;;8.90;73.00;;;;;;4912888;29;19934;-70
2023/04/28 00:20:46;;;;;;;;;;;8.90;72.80;;;;;;4913834;29;19911;-70
2023/04/28 00:23:11;;;;;;;;;;;8.90;73.10;;;;;;4908191;29;19911;-70
2023/04/28 00:25:39;;;;;;;;;;;8.80;73.00;;;;;;4914148;29;20018;-70
2023/04/28 00:28:05;;;;;;;;;;;8.90;73.10;;;;;;4916207;29;19915;-70
2023/04/28 00:30:30;;;;;;;;;;;8.90;73.20;;;;;;4905575;29;19921;-70
2023/04/28 00:32:56;;;;;;;;;;;8.90;73.60;;;;;;4922583;29;20297;-70
2023/04/28 00:35:22;;;;;;;;;;;8.70;74.30;;;;;;4908587;29;20186;-69
2023/04/28 00:37:47;;;;;;;;;;;8.80;73.90;;;;;;4930101;29;19981;-69
2023/04/28 00:40:13;;;;;;;;;;;8.70;73.50;;;;;;4910462;29;19918;-70
2023/04/28 00:42:39;;;;;;;;;;;8.80;74.40;;;;;;4928223;29;19918;-70
2023/04/28 00:45:06;;;;;;;;;;;8.80;74.20;;;;;;4924708;29;20375;-69
2023/04/28 00:47:32;;;;;;;;;;;8.70;73.90;;;;;;4911058;29;19915;-69
2023/04/28 00:49:58;;;;;;;;;;;8.70;74.10;;;;;;4927788;29;19926;-70
2023/04/28 00:52:24;;;;;;;;;;;8.80;73.90;;;;;;4929625;29;20277;-69
2023/04/28 00:54:49;;;;;;;;;;;8.80;73.90;;;;;;4928122;29;19954;-69
2023/04/28 00:57:15;;;;;;;;;;;8.80;73.70;;;;;;4942205;29;20001;-70
2023/04/28 00:59:41;;;;;;;;;;;8.80;73.80;;;;;;4933706;29;19930;-70
2023/04/28 01:02:06;;;;;;;;;;;8.80;73.80;;;;;;4934698;29;20279;-70
2023/04/28 01:13:44;;;;;;;;;;;8.70;74.10;;;;;;4933406;29;19915;-70
2023/04/28 01:19:16;;;;;;;;;;;8.60;72.60;;;;;;4825979;28;20531;-70
2023/04/28 01:21:43;;;;;;;;;;;8.70;72.40;;;;;;4971939;28;19960;-69
2023/04/28 01:24:10;;;;;;;;;;;8.70;72.30;;;;;;4972095;28;19945;-70
2023/04/28 01:26:35;;;;;;;;;;;8.60;72.50;;;;;;4972743;28;20321;-69
2023/04/28 01:29:01;;;;;;;;;;;8.70;72.60;;;;;;4967634;28;20089;-69
2023/04/28 01:31:26;;;;;;;;;;;8.80;72.70;;;;;;4970581;28;19910;-70
2023/04/28 01:33:52;;;;;;;;;;;8.90;73.20;;;;;;4972132;28;20254;-69
2023/04/28 01:36:18;;;;;;;;;;;8.80;72.70;;;;;;4954976;28;20399;-70
2023/04/28 01:38:44;;;;;;;;;;;8.80;71.80;;;;;;4969951;28;19925;-69
2023/04/28 01:41:10;;;;;;;;;;;8.70;71.80;;;;;;4987858;28;19914;-69
2023/04/28 01:43:35;;;;;;;;;;;8.70;72.50;;;;;;4972605;28;20346;-70
2023/04/28 01:46:01;;;;;;;;;;;8.80;72.80;;;;;;4971668;28;19920;-70
2023/04/28 01:48:27;;;;;;;;;;;8.90;72.50;;;;;;4971882;28;20337;-69
2023/04/28 01:50:52;;;;;;;;;;;8.90;72.70;;;;;;4971747;28;19950;-69
2023/04/28 01:53:19;;;;;;;;;;;8.90;72.20;;;;;;4987658;28;19925;-69
2023/04/28 01:55:45;;;;;;;;;;;8.90;71.70;;;;;;4971547;28;20366;-69
2023/04/28 01:58:11;;;;;;;;;;;8.80;71.00;;;;;;4963990;28;19914;-69
2023/04/28 02:00:37;;;;;;;;;;;8.70;70.80;;;;;;4974901;28;20223;-69
2023/04/28 02:03:03;;;;;;;;;;;8.80;70.80;;;;;;4975133;28;19921;-69
2023/04/28 02:05:28;;;;;;;;;;;8.80;71.30;;;;;;4964015;28;19910;-69
2023/04/28 02:07:54;;;;;;;;;;;8.80;70.20;;;;;;4975845;28;19910;-69
2023/04/28 02:10:20;;;;;;;;;;;8.80;70.30;;;;;;4975489;28;19937;-69
2023/04/28 02:12:46;;;;;;;;;;;8.80;70.50;;;;;;4969044;28;19922;-70
2023/04/28 02:15:13;;;;;;;;;;;8.80;69.90;;;;;;4966421;28;19965;-70
2023/04/28 02:17:39;;;;;;;;;;;8.80;70.40;;;;;;4961473;28;19957;-69
2023/04/28 02:20:05;;;;;;;;;;;8.80;70.00;;;;;;4977891;28;19971;-69
2023/04/28 02:22:30;;;;;;;;;;;8.80;70.00;;;;;;4978093;28;19914;-69
2023/04/28 02:24:56;;;;;;;;;;;8.80;70.40;;;;;;4993886;28;19925;-69
2023/04/28 02:27:21;;;;;;;;;;;8.80;70.70;;;;;;4967339;28;19960;-70
2023/04/28 02:29:47;;;;;;;;;;;8.80;69.80;;;;;;4933074;28;19914;-69
2023/04/28 02:32:13;;;;;;;;;;;8.80;69.90;;;;;;4974022;28;19956;-70
2023/04/28 02:34:39;;;;;;;;;;;8.90;70.00;;;;;;4961503;28;20032;-70
2023/04/28 02:37:04;;;;;;;;;;;8.90;70.00;;;;;;4952604;28;20303;-70
2023/04/28 02:39:31;;;;;;;;;;;8.90;69.60;;;;;;4974381;28;19914;-70
2023/04/28 02:41:57;;;;;;;;;;;8.90;69.50;;;;;;4967407;28;19914;-70
2023/04/28 02:44:23;;;;;;;;;;;8.90;69.20;;;;;;4962127;28;19913;-70
2023/04/28 02:46:49;;;;;;;;;;;8.90;69.00;;;;;;4995395;28;19910;-70
2023/04/28 02:49:15;;;;;;;;;;;8.90;69.40;;;;;;4961556;28;19914;-70
2023/04/28 02:51:40;;;;;;;;;;;8.90;69.50;;;;;;4962167;28;19910;-70
2023/04/28 02:54:06;;;;;;;;;;;9.00;69.40;;;;;;4976159;28;20377;-70
2023/04/28 02:56:32;;;;;;;;;;;9.00;69.40;;;;;;4966534;28;20254;-70
2023/04/28 02:58:58;;;;;;;;;;;9.00;70.30;;;;;;4960755;28;20405;-70
2023/04/28 03:01:24;;;;;;;;;;;9.00;69.70;;;;;;4972317;28;19914;-70
2023/04/28 03:03:50;;;;;;;;;;;9.10;69.70;;;;;;4960296;28;19917;-70
2023/04/28 03:06:16;;;;;;;;;;;9.20;70.00;;;;;;4965985;28;19925;-70
2023/04/28 03:08:42;;;;;;;;;;;9.10;69.30;;;;;;4949889;28;19976;-70
2023/04/28 03:11:08;;;;;;;;;;;9.20;69.70;;;;;;4989732;28;19913;-70
2023/04/28 03:13:35;;;;;;;;;;;9.20;69.50;;;;;;4982974;28;20289;-70
2023/04/28 03:16:00;;;;;;;;;;;9.20;70.00;;;;;;4986864;28;19964;-70
2023/04/28 03:18:26;;;;;;;;;;;9.20;70.60;;;;;;4975926;28;19918;-70
2023/04/28 03:20:51;;;;;;;;;;;9.20;70.10;;;;;;4978108;28;20854;-70
2023/04/28 03:23:17;;;;;;;;;;;9.20;70.40;;;;;;4961297;28;20289;-70
2023/04/28 03:25:43;;;;;;;;;;;9.20;70.30;;;;;;4975576;28;19956;-70
2023/04/28 03:28:09;;;;;;;;;;;9.20;70.30;;;;;;4990073;28;19913;-70
2023/04/28 03:30:35;;;;;;;;;;;9.20;70.00;;;;;;4971018;28;19945;-70
2023/04/28 03:33:01;;;;;;;;;;;9.20;70.20;;;;;;4994594;28;20305;-70
2023/04/28 03:35:27;;;;;;;;;;;9.20;70.30;;;;;;4990852;28;19917;-70
2023/04/28 03:37:52;;;;;;;;;;;9.30;70.30;;;;;;4961216;28;20242;-70
2023/04/28 03:40:20;;;;;;;;;;;9.20;70.40;;;;;;4961059;28;20016;-70
2023/04/28 03:42:45;;;;;;;;;;;9.30;70.80;;;;;;4963896;28;19960;-70
2023/04/28 03:45:11;;;;;;;;;;;9.20;70.90;;;;;;4976543;28;19909;-70
2023/04/28 03:47:37;;;;;;;;;;;9.30;71.20;;;;;;4949381;28;19917;-70
2023/04/28 03:50:03;;;;;;;;;;;9.20;70.90;;;;;;4960918;28;19914;-70
2023/04/28 03:52:28;;;;;;;;;;;9.30;71.10;;;;;;4955457;28;19924;-70
2023/04/28 03:54:54;;;;;;;;;;;9.30;71.20;;;;;;4957890;28;20627;-70
2023/04/28 03:57:19;;;;;;;;;;;9.30;71.40;;;;;;4944637;28;20230;-70
2023/04/28 03:59:46;;;;;;;;;;;9.30;71.20;;;;;;4981468;28;19941;-70
2023/04/28 04:02:12;;;;;;;;;;;9.20;71.80;;;;;;4974385;28;20471;-69
2023/04/28 04:04:37;;;;;;;;;;;9.10;73.20;;;;;;4976092;28;20536;-70
2023/04/28 04:07:03;;;;;;;;;;;9.10;72.90;;;;;;4976731;28;19913;-70
2023/04/28 04:09:29;;;;;;;;;;;9.20;72.80;;;;;;4959491;28;19917;-70
2023/04/28 04:11:54;;;;;;;;;;;9.20;73.30;;;;;;4958161;28;19953;-70
2023/04/28 04:14:20;;;;;;;;;;;9.20;74.20;;;;;;4958281;28;19924;-70
2023/04/28 04:16:47;;;;;;;;;;;9.10;74.50;;;;;;4977157;28;20241;-70
2023/04/28 04:19:13;;;;;;;;;;;9.10;75.00;;;;;;4976220;28;19922;-70
2023/04/28 04:21:38;;;;;;;;;;;9.00;75.40;;;;;;4968783;28;20199;-70
2023/04/28 04:24:05;;;;;;;;;;;9.00;75.00;;;;;;4975616;28;19924;-70
2023/04/28 04:26:31;;;;;;;;;;;9.00;75.60;;;;;;4975437;28;19913;-70
2023/04/28 04:28:56;;;;;;;;;;;9.00;76.40;;;;;;4992857;28;20012;-70
2023/04/28 04:31:22;;;;;;;;;;;8.80;76.60;;;;;;4975349;28;19917;-70
2023/04/28 04:33:48;;;;;;;;;;;8.80;76.70;;;;;;4956778;28;19910;-70
2023/04/28 04:36:14;;;;;;;;;;;8.80;76.50;;;;;;4992130;28;19957;-70
2023/04/28 04:38:39;;;;;;;;;;;8.80;76.80;;;;;;4975925;28;20318;-70
2023/04/28 04:41:05;;;;;;;;;;;8.80;77.20;;;;;;4960529;28;19918;-70
2023/04/28 04:43:31;;;;;;;;;;;8.80;76.90;;;;;;4986560;28;19910;-70
2023/04/28 04:45:56;;;;;;;;;;;8.80;77.90;;;;;;4992544;28;19910;-70
2023/04/28 04:48:22;;;;;;;;;;;8.80;77.80;;;;;;4974109;28;20338;-70
2023/04/28 04:50:48;;;;;;;;;;;8.80;77.80;;;;;;4993022;28;19913;-70
2023/04/28 04:53:14;;;;;;;;;;;8.80;77.70;;;;;;4976509;28;19916;-70
2023/04/28 04:55:40;;;;;;;;;;;8.80;78.30;;;;;;4957631;28;19914;-70
2023/04/28 04:58:05;;;;;;;;;;;8.80;78.20;;;;;;4969767;28;20777;-70
2023/04/28 05:00:31;;;;;;;;;;;8.80;78.30;;;;;;4974957;28;20064;-70
2023/04/28 05:02:57;;;;;;;;;;;8.80;78.70;;;;;;4975708;28;19909;-70
2023/04/28 05:05:23;;;;;;;;;;;8.90;78.40;;;;;;4952963;28;19917;-70
2023/04/28 05:07:49;;;;;;;;;;;8.90;78.40;;;;;;4958379;28;20318;-70
2023/04/28 05:10:14;;;;;;;;;;;8.90;79.00;;;;;;4975418;28;19917;-70
2023/04/28 05:12:40;;;;;;;;;;;9.00;78.60;;;;;;4992112;28;19971;-70
2023/04/28 05:15:06;;;;;;;;;;;9.10;79.20;;;;;;4988294;28;20000;-70
2023/04/28 05:17:32;;;;;;;;;;;9.10;78.70;;;;;;4970193;28;19910;-70
2023/04/28 05:19:58;;;;;;;;;;;9.20;79.10;;;;;;4986950;28;19925;-71
2023/04/28 05:22:24;;;;;;;;;;;9.20;78.80;;;;;;4993744;28;19941;-70
2023/04/28 05:24:50;;;;;;;;;;;9.30;79.20;;;;;;4992558;28;19920;-70
2023/04/28 05:27:17;;;;;;;;;;;9.30;79.70;;;;;;4976646;28;19913;-70
2023/04/28 05:29:42;;;;;;;;;;;9.30;77.40;;;;;;4975732;28;19925;-70
2023/04/28 05:32:09;;;;;;;;;;;9.30;78.90;;;;;;4974644;28;20353;-70
2023/04/28 05:34:35;;;;;;;;;;;9.40;78.80;;;;;;4966701;28;19949;-70
2023/04/28 05:37:01;;;;;;;;;;;9.50;78.90;;;;;;4947599;28;19945;-70
2023/04/28 05:39:27;;;;;;;;;;;9.50;79.40;;;;;;4962421;28;19952;-70
2023/04/28 05:41:52;;;;;;;;;;;9.60;79.50;;;;;;4988949;28;19914;-69
2023/04/28 05:44:18;;;;;;;;;;;9.70;79.10;;;;;;4947374;28;20312;-70
2023/04/28 05:46:44;;;;;;;;;;;9.80;78.90;;;;;;4978460;28;19926;-70
2023/04/28 05:49:10;;;;;;;;;;;9.80;79.10;;;;;;4979666;28;19913;-69
2023/04/28 05:51:35;;;;;;;;;;;9.80;78.00;;;;;;4959819;28;19972;-70
2023/04/28 05:54:01;;;;;;;;;;;9.90;78.40;;;;;;4962604;28;20012;-70
2023/04/28 05:56:30;;;;;;;;;;;9.90;78.30;;;;;;4959297;28;19914;-70
2023/04/28 05:58:57;;;;;;;;;;;9.90;76.10;;;;;;4989614;28;19933;-70
2023/04/28 06:01:23;;;;;;;;;;;9.90;75.80;;;;;;4989336;28;19918;-70
2023/04/28 06:03:48;;;;;;;;;;;9.90;75.60;;;;;;4959148;28;19936;-70
2023/04/28 06:06:14;;;;;;;;;;;10.00;76.10;;;;;;4972409;28;20046;-70
2023/04/28 06:08:40;;;;;;;;;;;10.00;74.10;;;;;;4976810;28;19920;-70
2023/04/28 06:11:06;;;;;;;;;;;10.00;74.20;;;;;;4962157;28;19918;-70
2023/04/28 06:13:31;;;;;;;;;;;10.10;74.20;;;;;;4978722;28;20325;-70
2023/04/28 06:15:57;;;;;;;;;;;10.10;73.70;;;;;;4979890;28;20282;-70
2023/04/28 06:18:23;;;;;;;;;;;10.10;73.60;;;;;;4958935;28;19963;-70
2023/04/28 06:20:49;;;;;;;;;;;10.10;73.80;;;;;;4978963;28;20326;-70
2023/04/28 06:23:15;;;;;;;;;;;10.10;74.10;;;;;;4978446;28;19917;-70
2023/04/28 06:25:40;;;;;;;;;;;10.20;73.40;;;;;;4989841;28;19918;-69
2023/04/28 06:28:06;;;;;;;;;;;10.20;73.80;;;;;;4955977;28;19913;-70
2023/04/28 06:30:33;;;;;;;;;;;10.30;73.10;;;;;;4945928;28;19941;-70
2023/04/28 06:32:59;;;;;;;;;;;10.30;72.50;;;;;;4985586;28;20023;-69
2023/04/28 06:35:24;;;;;;;;;;;10.30;72.70;;;;;;4995636;28;20548;-69
2023/04/28 06:37:50;;;;;;;;;;;10.40;72.50;;;;;;4962448;28;20008;-69
2023/04/28 06:40:16;;;;;;;;;;;10.30;72.20;;;;;;4995941;28;20179;-69
2023/04/28 06:42:41;;;;;;;;;;;10.40;72.00;;;;;;4960192;28;19914;-69
2023/04/28 06:45:07;;;;;;;;;;;10.50;72.40;;;;;;4946176;28;19913;-69
2023/04/28 06:47:33;;;;;;;;;;;10.60;72.60;;;;;;4976040;28;19916;-69
2023/04/28 06:50:00;;;;;;;;;;;10.70;72.70;;;;;;4966451;28;19910;-70
2023/04/28 06:52:28;;;;;;;;;;;10.80;73.10;;;;;;4970373;28;19918;-69
2023/04/28 06:54:53;;;;;;;;;;;10.90;73.10;;;;;;4972105;28;19922;-70
2023/04/28 06:57:20;;;;;;;;;;;10.90;72.90;;;;;;4943729;28;20223;-69
2023/04/28 06:59:46;;;;;;;;;;;11.00;72.00;;;;;;4972071;28;19921;-70
2023/04/28 07:02:11;;;;;;;;;;;11.00;72.10;;;;;;4972159;28;19968;-69
2023/04/28 07:04:37;;;;;;;;;;;11.10;72.20;;;;;;5000188;28;20357;-70
2023/04/28 07:07:06;;;;;;;;;;;11.20;72.80;;;;;;4984734;28;19948;-70
2023/04/28 07:09:35;;;;;;;;;;;11.20;71.70;;;;;;5003874;28;19913;-69
2023/04/28 07:12:02;;;;;;;;;;;11.20;71.80;;;;;;4996449;28;19920;-69
2023/04/28 07:14:28;;;;;;;;;;;11.20;71.50;;;;;;5003239;28;20000;-69
2023/04/28 07:16:54;;;;;;;;;;;11.30;72.60;;;;;;5001234;28;19926;-70
2023/04/28 07:19:20;;;;;;;;;;;11.40;74.30;;;;;;4974961;28;19918;-69
2023/04/28 07:21:45;;;;;;;;;;;11.50;72.80;;;;;;4994182;28;20222;-71
2023/04/28 07:24:12;;;;;;;;;;;11.50;71.70;;;;;;4990864;28;19955;-72
2023/04/28 07:26:38;;;;;;;;;;;11.50;72.20;;;;;;4965611;28;20326;-70
2023/04/28 07:29:04;;;;;;;;;;;11.50;71.90;;;;;;4972769;28;19914;-69
2023/04/28 07:31:29;;;;;;;;;;;11.50;70.90;;;;;;4973274;28;19918;-69
2023/04/28 07:33:55;;;;;;;;;;;11.60;71.00;;;;;;4999990;28;19913;-70
2023/04/28 07:36:21;;;;;;;;;;;11.50;70.50;;;;;;4984553;28;20245;-69
2023/04/28 07:38:47;;;;;;;;;;;11.50;70.60;;;;;;4983139;28;19924;-69
2023/04/28 07:41:12;;;;;;;;;;;11.60;71.10;;;;;;4982616;28;19913;-69
2023/04/28 07:43:38;;;;;;;;;;;11.60;71.40;;;;;;4969571;28;20313;-69
2023/04/28 07:46:05;;;;;;;;;;;11.70;70.70;;;;;;4992868;28;19925;-70
2023/04/28 07:48:31;;;;;;;;;;;11.70;71.40;;;;;;4956625;28;20600;-69
2023/04/28 07:50:58;;;;;;;;;;;11.80;72.60;;;;;;4975306;28;20004;-69
2023/04/28 07:53:23;;;;;;;;;;;11.90;71.50;;;;;;4957427;28;20009;-69
2023/04/28 07:55:49;;;;;;;;;;;12.00;72.20;;;;;;4992469;28;19987;-70
2023/04/28 07:58:15;;;;;;;;;;;12.00;72.30;;;;;;4970011;28;20337;-69
2023/04/28 08:00:41;;;;;;;;;;;12.10;73.00;;;;;;4974622;28;19909;-70
2023/04/28 08:03:06;;;;;;;;;;;12.20;71.30;;;;;;4985741;28;19925;-70
2023/04/28 08:05:32;;;;;;;;;;;12.20;71.80;;;;;;4977346;28;19914;-67
2023/04/28 08:07:58;;;;;;;;;;;12.20;69.90;;;;;;4960575;28;19917;-67
2023/04/28 08:10:25;;;;;;;;;;;12.30;70.20;;;;;;4985324;28;19913;-67
2023/04/28 08:12:51;;;;;;;;;;;12.30;70.70;;;;;;4974394;28;19913;-68
2023/04/28 08:15:17;;;;;;;;;;;12.40;70.00;;;;;;4973368;28;19972;-67
2023/04/28 08:17:42;;;;;;;;;;;12.50;70.10;;;;;;4976114;28;19922;-67
2023/04/28 08:20:08;;;;;;;;;;;12.50;71.60;;;;;;4974568;28;19922;-67
2023/04/28 08:22:35;;;;;;;;;;;12.50;71.10;;;;;;4952201;28;19921;-67
2023/04/28 08:25:00;;;;;;;;;;;12.40;70.00;;;;;;4993229;28;19963;-67
2023/04/28 08:27:26;;;;;;;;;;;12.50;71.10;;;;;;4982892;28;20287;-67
2023/04/28 08:29:51;;;;;;;;;;;12.40;71.80;;;;;;4976386;28;19913;-67
2023/04/28 08:32:17;;;;;;;;;;;12.50;71.60;;;;;;4987138;28;19913;-67
2023/04/28 08:34:43;;;;;;;;;;;12.50;70.80;;;;;;4975714;28;19913;-67
2023/04/28 08:37:08;;;;;;;;;;;12.50;70.40;;;;;;4974009;28;19913;-67
2023/04/28 08:39:34;;;;;;;;;;;12.40;71.80;;;;;;4974232;28;20004;-68
2023/04/28 08:42:06;;;;;;;;;;;12.40;71.10;;;;;;4984228;28;20347;-67
2023/04/28 08:44:40;;;;;;;;;;;12.30;71.20;;;;;;4982868;28;20078;-67
2023/04/28 08:47:13;;;;;;;;;;;12.40;71.90;;;;;;4968026;28;19913;-68
2023/04/28 08:49:39;;;;;;;;;;;12.40;72.00;;;;;;4969520;28;19913;-67
2023/04/28 08:52:11;;;;;;;;;;;12.50;72.00;;;;;;4959548;28;19913;-67
2023/04/28 08:54:37;;;;;;;;;;;12.40;72.60;;;;;;4983706;28;19914;-67
2023/04/28 08:57:03;;;;;;;;;;;12.50;73.10;;;;;;4960427;28;19924;-67
2023/04/28 08:59:29;;;;;;;;;;;12.60;73.00;;;;;;4975682;28;19928;-67
2023/04/28 09:01:55;;;;;;;;;;;12.60;73.30;;;;;;4958347;28;19918;-67
2023/04/28 09:04:21;;;;;;;;;;;12.70;74.00;;;;;;4990421;28;20008;-67
2023/04/28 09:06:47;;;;;;;;;;;12.70;74.80;;;;;;4992418;28;19992;-67
2023/04/28 09:09:25;;;;;;;;;;;12.70;74.90;;;;;;4976717;28;19925;-67
2023/04/28 09:11:52;;;;;;;;;;;12.90;74.80;;;;;;4954425;28;19925;-67
2023/04/28 09:14:18;;;;;;;;;;;12.90;74.00;;;;;;4968416;28;19914;-67
2023/04/28 09:16:43;;;;;;;;;;;13.00;75.60;;;;;;4976543;28;20354;-67
2023/04/28 09:19:09;;;;;;;;;;;13.10;76.30;;;;;;4972875;28;20381;-67
2023/04/28 09:21:51;;;;;;;;;;;13.20;75.90;;;;;;4995996;28;19918;-67
2023/04/28 09:24:27;;;;;;;;;;;13.30;76.80;;;;;;4992073;28;19909;-67
2023/04/28 09:26:53;;;;;;;;;;;13.40;76.00;;;;;;4982040;28;19918;-68
2023/04/28 09:29:18;;;;;;;;;;;13.50;76.50;;;;;;4947871;28;19922;-68
2023/04/28 09:31:45;;;;;;;;;;;13.60;77.20;;;;;;4990033;28;19936;-67
2023/04/28 09:34:11;;;;;;;;;;;13.70;76.20;;;;;;4967708;28;19914;-67
2023/04/28 09:36:36;;;;;;;;;;;13.70;76.70;;;;;;4991308;28;19924;-67
2023/04/28 09:39:04;;;;;;;;;;;13.80;77.70;;;;;;4977635;28;20310;-67
2023/04/28 09:41:39;;;;;;;;;;;13.80;76.90;;;;;;5001852;28;19996;-67
2023/04/28 09:44:11;;;;;;;;;;;13.80;77.90;;;;;;4973687;28;19968;-67
2023/04/28 09:46:36;;;;;;;;;;;13.80;76.20;;;;;;4988292;28;19940;-67
2023/04/28 09:49:02;;;;;;;;;;;13.70;76.10;;;;;;4979997;28;19913;-67
2023/04/28 09:51:28;;;;;;;;;;;13.80;76.70;;;;;;4968832;28;20309;-67
2023/04/28 09:53:54;;;;;;;;;;;13.80;75.90;;;;;;4969491;28;19952;-68
2023/04/28 09:56:20;;;;;;;;;;;13.80;76.90;;;;;;4992488;28;20294;-67
2023/04/28 09:58:46;;;;;;;;;;;13.60;76.20;;;;;;4974705;28;19918;-67
2023/04/28 10:01:11;;;;;;;;;;;13.70;77.00;;;;;;4941333;28;20320;-68
2023/04/28 10:03:37;;;;;;;;;;;13.60;76.90;;;;;;4959250;28;19916;-67
2023/04/28 10:06:03;;;;;;;;;;;13.70;77.70;;;;;;4959427;28;19976;-67
2023/04/28 10:08:29;;;;;;;;;;;13.70;77.30;;;;;;4976406;28;19925;-67
2023/04/28 10:10:55;;;;;;;;;;;13.80;77.50;;;;;;4983870;28;19939;-67
2023/04/28 10:13:21;;;;;;;;;;;13.90;76.80;;;;;;4952521;28;19918;-67
2023/04/28 10:15:47;;;;;;;;;;;13.90;77.50;;;;;;4996255;28;20234;-70
2023/04/28 10:18:17;;;;;;;;;;;13.90;76.60;;;;;;4998849;28;20437;-67
2023/04/28 10:20:43;;;;;;;;;;;13.90;77.00;;;;;;4959088;28;20385;-69
2023/04/28 10:23:18;;;;;;;;;;;13.90;76.90;;;;;;4960401;28;19921;-68
2023/04/28 10:25:43;;;;;;;;;;;13.90;78.10;;;;;;4992070;28;20496;-69
2023/04/28 10:28:09;;;;;;;;;;;13.90;77.70;;;;;;4955720;28;20013;-68
2023/04/28 10:30:36;;;;;;;;;;;13.80;76.50;;;;;;4994781;28;20353;-68
2023/04/28 10:33:05;;;;;;;;;;;13.80;78.60;;;;;;4977468;28;19909;-68
2023/04/28 10:35:38;;;;;;;;;;;13.70;78.70;;;;;;4978271;28;19952;-68
2023/04/28 10:38:04;;;;;;;;;;;13.80;79.60;;;;;;4976837;28;19913;-68
2023/04/28 10:40:33;;;;;;;;;;;13.80;79.10;;;;;;4942318;28;20326;-68
2023/04/28 10:42:59;;;;;;;;;;;13.80;80.40;;;;;;4998728;28;20428;-68
2023/04/28 10:45:43;;;;;;;;;;;13.90;80.40;;;;;;4963388;28;19917;-68
2023/04/28 10:48:09;;;;;;;;;;;13.90;79.40;;;;;;4987504;28;19996;-67
2023/04/28 10:50:36;;;;;;;;;;;13.80;79.60;;;;;;4946343;28;20521;-68
2023/04/28 10:53:03;;;;;;;;;;;13.80;80.20;;;;;;4961863;28;19980;-67
2023/04/28 10:55:35;;;;;;;;;;;13.70;78.80;;;;;;4973719;28;19929;-68
2023/04/28 10:58:19;;;;;;;;;;;13.80;79.80;;;;;;4968406;28;19952;-67
2023/04/28 11:00:47;;;;;;;;;;;13.80;79.90;;;;;;4983770;28;19928;-67
2023/04/28 11:03:32;;;;;;;;;;;13.90;81.00;;;;;;4953702;28;19914;-68
2023/04/28 11:06:16;;;;;;;;;;;14.00;81.70;;;;;;4974818;28;20567;-68
2023/04/28 11:08:42;;;;;;;;;;;14.00;82.30;;;;;;4980613;28;19952;-67
2023/04/28 11:11:15;;;;;;;;;;;14.00;82.40;;;;;;4984746;28;19959;-67
2023/04/28 11:13:42;;;;;;;;;;;14.00;82.50;;;;;;4980244;28;20270;-68
2023/04/28 11:16:07;;;;;;;;;;;14.10;83.30;;;;;;4983238;28;19987;-67
2023/04/28 11:18:52;;;;;;;;;;;14.00;83.10;;;;;;4973590;28;20624;-67
2023/04/28 11:21:20;;;;;;;;;;;14.00;82.40;;;;;;4973139;28;19914;-68
2023/04/28 11:23:46;;;;;;;;;;;14.00;82.40;;;;;;4982098;28;19922;-67
2023/04/28 11:26:12;;;;;;;;;;;14.00;82.70;;;;;;4974216;28;20340;-68
2023/04/28 11:28:54;;;;;;;;;;;14.10;83.20;;;;;;4974675;28;19914;-68
2023/04/28 11:31:23;;;;;;;;;;;14.10;83.40;;;;;;4969267;28;19914;-68
2023/04/28 11:33:50;;;;;;;;;;;14.20;83.60;;;;;;4967148;28;19914;-68
2023/04/28 11:36:22;;;;;;;;;;;14.20;83.70;;;;;;4976473;28;19921;-68
2023/04/28 11:38:48;;;;;;;;;;;14.20;83.70;;;;;;4969155;28;19921;-68
2023/04/28 11:41:14;;;;;;;;;;;14.20;82.00;;;;;;4981567;28;20024;-68
2023/04/28 11:43:40;;;;;;;;;;;14.20;82.50;;;;;;4978439;28;19914;-68
2023/04/28 11:46:06;;;;;;;;;;;14.20;82.50;;;;;;4978478;28;20402;-68
2023/04/28 11:48:32;;;;;;;;;;;14.20;82.70;;;;;;4968842;28;19949;-68
2023/04/28 11:50:57;;;;;;;;;;;14.20;82.50;;;;;;4973889;28;19950;-68
2023/04/28 11:53:42;;;;;;;;;;;14.20;83.10;;;;;;4972773;28;19914;-68
2023/04/28 11:56:08;;;;;;;;;;;14.20;84.60;;;;;;4968514;28;19914;-68
2023/04/28 11:58:34;;;;;;;;;;;14.20;85.60;;;;;;4969500;28;20014;-68
2023/04/28 12:01:08;;;;;;;;;;;14.20;85.40;;;;;;4967448;28;20238;-68
2023/04/28 12:03:43;;;;;;;;;;;14.20;84.80;;;;;;4970299;28;20258;-68
2023/04/28 12:06:09;;;;;;;;;;;14.20;84.70;;;;;;4974609;28;20450;-68
2023/04/28 12:08:34;;;;;;;;;;;14.20;85.20;;;;;;4966677;28;19956;-68
2023/04/28 12:11:10;;;;;;;;;;;14.20;85.50;;;;;;4975622;28;20058;-68
2023/04/28 12:13:37;;;;;;;;;;;14.20;85.70;;;;;;4982743;28;19956;-68
2023/04/28 12:16:04;;;;;;;;;;;14.30;85.40;;;;;;4959516;28;19913;-68
2023/04/28 12:18:33;;;;;;;;;;;14.20;85.50;;;;;;4983363;28;20017;-68
2023/04/28 12:20:59;;;;;;;;;;;14.30;85.80;;;;;;4992134;28;20013;-68
2023/04/28 12:23:32;;;;;;;;;;;14.30;85.60;;;;;;4979958;28;19917;-68
2023/04/28 12:25:57;;;;;;;;;;;14.30;86.90;;;;;;4976234;28;20004;-68
2023/04/28 12:28:23;;;;;;;;;;;14.20;86.80;;;;;;4992163;28;20013;-68
2023/04/28 12:30:49;;;;;;;;;;;14.20;86.50;;;;;;4993545;28;19914;-68
2023/04/28 12:33:22;;;;;;;;;;;14.20;87.40;;;;;;4960044;28;19921;-68
2023/04/28 12:35:52;;;;;;;;;;;14.20;87.30;;;;;;4992824;28;19972;-67
2023/04/28 12:38:18;;;;;;;;;;;14.10;88.30;;;;;;4972123;28;19918;-68
2023/04/28 12:40:43;;;;;;;;;;;14.10;87.90;;;;;;4974179;28;19918;-68
2023/04/28 12:43:09;;;;;;;;;;;14.10;88.40;;;;;;4957817;28;19914;-68
2023/04/28 12:45:35;;;;;;;;;;;14.10;87.90;;;;;;4986852;28;19952;-68
2023/04/28 12:48:01;;;;;;;;;;;14.10;87.90;;;;;;4969120;28;19964;-68
2023/04/28 12:50:31;;;;;;;;;;;14.10;88.70;;;;;;4979636;28;19914;-68
2023/04/28 12:52:57;;;;;;;;;;;14.00;88.10;;;;;;4983189;28;20020;-68
2023/04/28 12:55:23;;;;;;;;;;;14.00;88.60;;;;;;4985939;28;19964;-68
2023/04/28 12:57:48;;;;;;;;;;;13.90;89.30;;;;;;4997474;28;19921;-68
2023/04/28 13:00:15;;;;;;;;;;;14.00;89.80;;;;;;4960041;28;19920;-68
2023/04/28 13:02:41;;;;;;;;;;;13.90;89.70;;;;;;4975420;28;19913;-68
2023/04/28 13:05:08;;;;;;;;;;;13.80;90.00;;;;;;4975891;28;19960;-68
2023/04/28 13:07:33;;;;;;;;;;;13.80;90.30;;;;;;4966961;28;19919;-68
2023/04/28 13:09:59;;;;;;;;;;;13.80;90.60;;;;;;5001495;28;19910;-68
2023/04/28 13:12:24;;;;;;;;;;;13.80;90.90;;;;;;5003057;28;19952;-68
2023/04/28 13:14:51;;;;;;;;;;;13.80;91.60;;;;;;4966782;28;20024;-68
2023/04/28 13:17:17;;;;;;;;;;;13.80;91.50;;;;;;4967743;28;19914;-68
2023/04/28 13:19:43;;;;;;;;;;;13.90;91.30;;;;;;4991030;28;19932;-68
2023/04/28 13:22:09;;;;;;;;;;;13.90;91.70;;;;;;4950700;28;20266;-68
2023/04/28 13:24:34;;;;;;;;;;;13.90;91.70;;;;;;4971809;28;20231;-68
2023/04/28 13:27:03;;;;;;;;;;;13.90;91.80;;;;;;4973116;28;19913;-69
2023/04/28 13:29:46;;;;;;;;;;;13.90;91.70;;;;;;5002059;28;19917;-70
2023/04/28 13:32:12;;;;;;;;;;;13.80;91.70;;;;;;4988107;28;19936;-70
2023/04/28 13:34:38;;;;;;;;;;;13.80;91.60;;;;;;4991715;28;20301;-70
2023/04/28 13:37:03;;;;;;;;;;;13.90;92.00;;;;;;4975638;28;19913;-70
2023/04/28 13:39:29;;;;;;;;;;;14.00;92.10;;;;;;4975241;28;19928;-70
2023/04/28 13:41:55;;;;;;;;;;;13.90;92.10;;;;;;4973005;28;19953;-71
2023/04/28 13:44:21;;;;;;;;;;;13.90;93.00;;;;;;4955410;28;19914;-70
2023/04/28 13:46:46;;;;;;;;;;;13.90;92.80;;;;;;4979008;28;19964;-70
2023/04/28 13:49:12;;;;;;;;;;;13.90;93.00;;;;;;4974864;28;19914;-70
2023/04/28 13:51:38;;;;;;;;;;;13.90;93.50;;;;;;4959205;28;19913;-71
2023/04/28 13:54:07;;;;;;;;;;;14.00;93.80;;;;;;4966221;28;19914;-74
2023/04/28 13:56:32;;;;;;;;;;;14.20;93.80;;;;;;4962367;28;19956;-71
2023/04/28 13:58:58;;;;;;;;;;;14.40;94.60;;;;;;4946817;28;19961;-72
2023/04/28 14:01:24;;;;;;;;;;;14.60;93.50;;;;;;4945995;28;19914;-71
2023/04/28 14:03:49;;;;;;;;;;;14.70;92.90;;;;;;4978382;28;19925;-71
2023/04/28 14:06:15;;;;;;;;;;;14.70;92.70;;;;;;4978843;28;20326;-68
2023/04/28 14:08:41;;;;;;;;;;;14.80;92.70;;;;;;4961017;28;19960;-67
2023/04/28 14:11:07;;;;;;;;;;;14.80;92.30;;;;;;4960873;28;20310;-67
2023/04/28 14:13:32;;;;;;;;;;;14.70;92.60;;;;;;4960935;28;19909;-67
2023/04/28 14:15:58;;;;;;;;;;;14.70;92.70;;;;;;4961272;28;19921;-69
2023/04/28 14:18:24;;;;;;;;;;;14.60;92.80;;;;;;4978598;28;19913;-67
2023/04/28 14:20:49;;;;;;;;;;;14.60;93.50;;;;;;4989683;28;20328;-67
2023/04/28 14:23:17;;;;;;;;;;;14.50;93.80;;;;;;4977574;28;20262;-67
2023/04/28 14:25:42;;;;;;;;;;;14.60;93.50;;;;;;4959678;28;19947;-68
2023/04/28 14:28:08;;;;;;;;;;;14.50;94.10;;;;;;4988842;28;20319;-67
2023/04/28 14:30:34;;;;;;;;;;;14.40;93.60;;;;;;4976185;28;20582;-67